sensor_id;sensor_type;location;lat;lon;timestamp;P1;durP1;ratioP1;P2;durP2;ratioP2
579;SDS011;276;48.392;9.950;2023-02-28T00:01:12;5.30;;;4.30;;
579;SDS011;276;48.392;9.950;2023-02-28T00:03:38;4.40;;;4.00;;
579;SDS011;276;48.392;9.950;2023-02-28T00:06:07;9.23;;;4.87;;
579;SDS011;276;48.392;9.950;2023-02-28T00:08:36;4.60;;;3.60;;
579;SDS011;276;48.392;9.950;2023-02-28T00:11:03;5.67;;;4.47;;
579;SDS011;276;48.392;9.950;2023-02-28T00:13:30;5.83;;;4.80;;
579;SDS011;276;48.392;9.950;2023-02-28T00:16:08;4.90;;;4.50;;
579;SDS011;276;48.392;9.950;2023-02-28T00:18:38;6.37;;;4.57;;
579;SDS011;276;48.392;9.950;2023-02-28T00:21:07;5.03;;;4.33;;
579;SDS011;276;48.392;9.950;2023-02-28T00:23:36;4.47;;;4.07;;
579;SDS011;276;48.392;9.950;2023-02-28T00:26:05;3.50;;;3.20;;
579;SDS011;276;48.392;9.950;2023-02-28T00:28:31;4.27;;;3.67;;
579;SDS011;276;48.392;9.950;2023-02-28T00:30:59;4.80;;;4.40;;
579;SDS011;276;48.392;9.950;2023-02-28T00:33:25;3.90;;;3.60;;
579;SDS011;276;48.392;9.950;2023-02-28T00:35:51;5.20;;;3.90;;
579;SDS011;276;48.392;9.950;2023-02-28T00:38:17;3.70;;;3.40;;
579;SDS011;276;48.392;9.950;2023-02-28T00:40:44;4.40;;;3.30;;
579;SDS011;276;48.392;9.950;2023-02-28T00:43:10;4.10;;;3.70;;
579;SDS011;276;48.392;9.950;2023-02-28T00:45:36;3.87;;;3.47;;
579;SDS011;276;48.392;9.950;2023-02-28T00:48:01;3.47;;;3.27;;
579;SDS011;276;48.392;9.950;2023-02-28T00:50:29;3.73;;;3.47;;
579;SDS011;276;48.392;9.950;2023-02-28T00:52:57;5.20;;;4.80;;
579;SDS011;276;48.392;9.950;2023-02-28T00:55:23;4.97;;;4.00;;
579;SDS011;276;48.392;9.950;2023-02-28T00:57:51;3.93;;;3.53;;
579;SDS011;276;48.392;9.950;2023-02-28T01:00:17;4.77;;;3.70;;
579;SDS011;276;48.392;9.950;2023-02-28T01:02:45;4.70;;;3.83;;
579;SDS011;276;48.392;9.950;2023-02-28T01:05:15;3.97;;;3.67;;
579;SDS011;276;48.392;9.950;2023-02-28T01:07:45;4.37;;;3.80;;
579;SDS011;276;48.392;9.950;2023-02-28T01:10:11;4.70;;;3.70;;
579;SDS011;276;48.392;9.950;2023-02-28T01:12:37;4.47;;;3.63;;
579;SDS011;276;48.392;9.950;2023-02-28T01:15:09;3.70;;;3.50;;
579;SDS011;276;48.392;9.950;2023-02-28T01:17:35;7.90;;;5.03;;
579;SDS011;276;48.392;9.950;2023-02-28T01:20:04;5.77;;;4.23;;
579;SDS011;276;48.392;9.950;2023-02-28T01:22:30;4.07;;;3.67;;
579;SDS011;276;48.392;9.950;2023-02-28T01:24:57;5.33;;;4.07;;
579;SDS011;276;48.392;9.950;2023-02-28T01:27:23;5.20;;;4.77;;
579;SDS011;276;48.392;9.950;2023-02-28T01:29:50;3.97;;;3.60;;
579;SDS011;276;48.392;9.950;2023-02-28T01:32:20;3.77;;;3.23;;
579;SDS011;276;48.392;9.950;2023-02-28T01:34:47;4.90;;;3.80;;
579;SDS011;276;48.392;9.950;2023-02-28T01:37:15;5.50;;;4.37;;
579;SDS011;276;48.392;9.950;2023-02-28T01:39:41;6.00;;;4.83;;
579;SDS011;276;48.392;9.950;2023-02-28T01:42:12;3.73;;;3.43;;
579;SDS011;276;48.392;9.950;2023-02-28T01:45:00;5.10;;;4.60;;
579;SDS011;276;48.392;9.950;2023-02-28T01:47:30;5.43;;;4.90;;
579;SDS011;276;48.392;9.950;2023-02-28T01:50:00;3.60;;;3.27;;
579;SDS011;276;48.392;9.950;2023-02-28T01:52:26;4.80;;;4.33;;
579;SDS011;276;48.392;9.950;2023-02-28T01:54:54;6.13;;;4.80;;
579;SDS011;276;48.392;9.950;2023-02-28T01:57:24;6.00;;;4.23;;
579;SDS011;276;48.392;9.950;2023-02-28T02:00:04;3.97;;;3.67;;
579;SDS011;276;48.392;9.950;2023-02-28T02:02:33;6.20;;;5.60;;
579;SDS011;276;48.392;9.950;2023-02-28T02:05:12;4.70;;;4.13;;
579;SDS011;276;48.392;9.950;2023-02-28T02:07:45;5.13;;;4.73;;
579;SDS011;276;48.392;9.950;2023-02-28T02:18:00;10.47;;;4.80;;
579;SDS011;276;48.392;9.950;2023-02-28T02:20:58;4.60;;;4.20;;
579;SDS011;276;48.392;9.950;2023-02-28T02:35:14;5.20;;;4.00;;
579;SDS011;276;48.392;9.950;2023-02-28T02:40:14;4.53;;;4.10;;
579;SDS011;276;48.392;9.950;2023-02-28T02:45:34;6.13;;;4.87;;
579;SDS011;276;48.392;9.950;2023-02-28T02:48:07;5.03;;;4.53;;
579;SDS011;276;48.392;9.950;2023-02-28T02:50:42;4.37;;;4.07;;
579;SDS011;276;48.392;9.950;2023-02-28T02:53:32;7.77;;;5.37;;
579;SDS011;276;48.392;9.950;2023-02-28T02:56:02;5.73;;;4.73;;
579;SDS011;276;48.392;9.950;2023-02-28T02:58:31;5.40;;;4.60;;
579;SDS011;276;48.392;9.950;2023-02-28T03:01:01;6.37;;;5.23;;
579;SDS011;276;48.392;9.950;2023-02-28T03:03:30;6.27;;;5.30;;
579;SDS011;276;48.392;9.950;2023-02-28T03:06:00;9.53;;;5.57;;
579;SDS011;276;48.392;9.950;2023-02-28T03:08:28;6.53;;;4.70;;
579;SDS011;276;48.392;9.950;2023-02-28T03:11:00;6.83;;;5.70;;
579;SDS011;276;48.392;9.950;2023-02-28T03:19:03;5.80;;;5.20;;
579;SDS011;276;48.392;9.950;2023-02-28T03:21:42;4.93;;;4.53;;
579;SDS011;276;48.392;9.950;2023-02-28T03:26:57;6.77;;;4.83;;
579;SDS011;276;48.392;9.950;2023-02-28T03:29:28;4.87;;;4.47;;
579;SDS011;276;48.392;9.950;2023-02-28T03:32:25;5.40;;;4.90;;
579;SDS011;276;48.392;9.950;2023-02-28T03:37:29;8.03;;;3.97;;
579;SDS011;276;48.392;9.950;2023-02-28T03:40:00;4.63;;;4.23;;
579;SDS011;276;48.392;9.950;2023-02-28T03:42:33;4.87;;;4.40;;
579;SDS011;276;48.392;9.950;2023-02-28T03:45:05;7.20;;;5.40;;
579;SDS011;276;48.392;9.950;2023-02-28T03:47:53;6.93;;;6.23;;
579;SDS011;276;48.392;9.950;2023-02-28T03:50:22;8.80;;;5.80;;
579;SDS011;276;48.392;9.950;2023-02-28T03:52:58;7.23;;;6.53;;
579;SDS011;276;48.392;9.950;2023-02-28T03:55:30;7.23;;;5.40;;
579;SDS011;276;48.392;9.950;2023-02-28T04:00:36;6.70;;;4.87;;
579;SDS011;276;48.392;9.950;2023-02-28T04:03:11;5.87;;;5.43;;
579;SDS011;276;48.392;9.950;2023-02-28T04:05:54;5.60;;;5.10;;
579;SDS011;276;48.392;9.950;2023-02-28T04:08:21;6.50;;;5.60;;
579;SDS011;276;48.392;9.950;2023-02-28T04:10:56;6.07;;;5.57;;
579;SDS011;276;48.392;9.950;2023-02-28T04:13:30;6.03;;;4.97;;
579;SDS011;276;48.392;9.950;2023-02-28T04:15:58;5.20;;;4.70;;
579;SDS011;276;48.392;9.950;2023-02-28T04:18:26;7.73;;;6.40;;
579;SDS011;276;48.392;9.950;2023-02-28T04:20:52;8.07;;;7.27;;
579;SDS011;276;48.392;9.950;2023-02-28T04:23:19;7.63;;;5.73;;
579;SDS011;276;48.392;9.950;2023-02-28T04:25:47;7.00;;;6.27;;
579;SDS011;276;48.392;9.950;2023-02-28T04:28:14;7.57;;;6.87;;
579;SDS011;276;48.392;9.950;2023-02-28T04:30:42;5.93;;;5.33;;
579;SDS011;276;48.392;9.950;2023-02-28T04:33:10;6.47;;;5.97;;
579;SDS011;276;48.392;9.950;2023-02-28T04:35:36;6.10;;;5.60;;
579;SDS011;276;48.392;9.950;2023-02-28T04:38:02;8.40;;;6.60;;
579;SDS011;276;48.392;9.950;2023-02-28T04:40:27;10.40;;;7.23;;
579;SDS011;276;48.392;9.950;2023-02-28T04:42:53;8.17;;;7.37;;
579;SDS011;276;48.392;9.950;2023-02-28T04:45:21;7.57;;;6.87;;
579;SDS011;276;48.392;9.950;2023-02-28T04:47:47;7.93;;;6.20;;
579;SDS011;276;48.392;9.950;2023-02-28T04:50:14;6.63;;;6.00;;
579;SDS011;276;48.392;9.950;2023-02-28T04:52:42;7.13;;;6.43;;
579;SDS011;276;48.392;9.950;2023-02-28T04:55:13;9.33;;;6.50;;
579;SDS011;276;48.392;9.950;2023-02-28T04:57:38;6.50;;;5.87;;
579;SDS011;276;48.392;9.950;2023-02-28T05:00:04;7.83;;;6.53;;
579;SDS011;276;48.392;9.950;2023-02-28T05:02:36;7.10;;;6.40;;
579;SDS011;276;48.392;9.950;2023-02-28T05:05:04;6.90;;;6.30;;
579;SDS011;276;48.392;9.950;2023-02-28T05:07:33;11.10;;;6.90;;
579;SDS011;276;48.392;9.950;2023-02-28T05:10:03;7.70;;;7.00;;
579;SDS011;276;48.392;9.950;2023-02-28T05:12:29;8.57;;;6.70;;
579;SDS011;276;48.392;9.950;2023-02-28T05:14:57;7.53;;;6.83;;
579;SDS011;276;48.392;9.950;2023-02-28T05:17:26;8.30;;;7.53;;
579;SDS011;276;48.392;9.950;2023-02-28T05:19:52;7.40;;;6.80;;
579;SDS011;276;48.392;9.950;2023-02-28T05:22:20;7.60;;;6.80;;
579;SDS011;276;48.392;9.950;2023-02-28T05:24:46;7.93;;;7.13;;
579;SDS011;276;48.392;9.950;2023-02-28T05:27:12;7.83;;;7.10;;
579;SDS011;276;48.392;9.950;2023-02-28T05:29:37;8.17;;;7.20;;
579;SDS011;276;48.392;9.950;2023-02-28T05:32:09;8.47;;;7.67;;
579;SDS011;276;48.392;9.950;2023-02-28T05:34:38;11.70;;;7.37;;
579;SDS011;276;48.392;9.950;2023-02-28T05:37:08;9.13;;;7.40;;
579;SDS011;276;48.392;9.950;2023-02-28T05:39:42;9.87;;;8.80;;
579;SDS011;276;48.392;9.950;2023-02-28T05:42:12;10.10;;;9.10;;
579;SDS011;276;48.392;9.950;2023-02-28T05:44:40;10.33;;;9.07;;
579;SDS011;276;48.392;9.950;2023-02-28T05:47:08;9.40;;;8.17;;
579;SDS011;276;48.392;9.950;2023-02-28T05:49:34;7.80;;;7.03;;
579;SDS011;276;48.392;9.950;2023-02-28T05:52:02;8.90;;;8.10;;
579;SDS011;276;48.392;9.950;2023-02-28T05:54:27;9.43;;;8.53;;
579;SDS011;276;48.392;9.950;2023-02-28T05:56:53;7.70;;;7.07;;
579;SDS011;276;48.392;9.950;2023-02-28T05:59:21;7.90;;;7.30;;
579;SDS011;276;48.392;9.950;2023-02-28T06:01:49;7.20;;;6.60;;
579;SDS011;276;48.392;9.950;2023-02-28T06:04:15;8.57;;;7.87;;
579;SDS011;276;48.392;9.950;2023-02-28T06:06:48;8.30;;;7.50;;
579;SDS011;276;48.392;9.950;2023-02-28T06:09:14;8.80;;;7.50;;
579;SDS011;276;48.392;9.950;2023-02-28T06:11:44;9.60;;;8.67;;
579;SDS011;276;48.392;9.950;2023-02-28T06:14:15;13.20;;;8.67;;
579;SDS011;276;48.392;9.950;2023-02-28T06:16:45;7.97;;;7.27;;
579;SDS011;276;48.392;9.950;2023-02-28T06:19:11;9.20;;;8.30;;
579;SDS011;276;48.392;9.950;2023-02-28T06:21:36;9.17;;;8.27;;
579;SDS011;276;48.392;9.950;2023-02-28T06:24:02;9.67;;;8.77;;
579;SDS011;276;48.392;9.950;2023-02-28T06:26:28;9.00;;;8.20;;
579;SDS011;276;48.392;9.950;2023-02-28T06:28:54;9.03;;;8.27;;
579;SDS011;276;48.392;9.950;2023-02-28T06:31:20;10.70;;;9.70;;
579;SDS011;276;48.392;9.950;2023-02-28T06:33:46;9.70;;;8.80;;
579;SDS011;276;48.392;9.950;2023-02-28T06:36:12;9.93;;;8.90;;
579;SDS011;276;48.392;9.950;2023-02-28T06:38:41;10.27;;;9.13;;
579;SDS011;276;48.392;9.950;2023-02-28T06:41:10;12.23;;;10.67;;
579;SDS011;276;48.392;9.950;2023-02-28T06:43:40;9.73;;;8.83;;
579;SDS011;276;48.392;9.950;2023-02-28T06:46:10;10.53;;;9.37;;
579;SDS011;276;48.392;9.950;2023-02-28T06:48:40;12.70;;;8.97;;
579;SDS011;276;48.392;9.950;2023-02-28T06:51:16;12.03;;;9.87;;
579;SDS011;276;48.392;9.950;2023-02-28T06:53:45;10.40;;;9.40;;
579;SDS011;276;48.392;9.950;2023-02-28T06:56:11;9.60;;;8.70;;
579;SDS011;276;48.392;9.950;2023-02-28T06:58:45;10.23;;;9.23;;
579;SDS011;276;48.392;9.950;2023-02-28T07:01:14;10.10;;;9.10;;
579;SDS011;276;48.392;9.950;2023-02-28T07:03:43;10.40;;;9.40;;
579;SDS011;276;48.392;9.950;2023-02-28T07:06:09;10.70;;;9.13;;
579;SDS011;276;48.392;9.950;2023-02-28T07:08:38;11.30;;;10.20;;
579;SDS011;276;48.392;9.950;2023-02-28T07:11:08;13.70;;;9.00;;
579;SDS011;276;48.392;9.950;2023-02-28T07:13:36;10.03;;;8.77;;
579;SDS011;276;48.392;9.950;2023-02-28T07:16:05;10.00;;;9.20;;
579;SDS011;276;48.392;9.950;2023-02-28T07:18:35;11.57;;;10.30;;
579;SDS011;276;48.392;9.950;2023-02-28T07:21:04;11.40;;;10.10;;
579;SDS011;276;48.392;9.950;2023-02-28T07:23:31;13.97;;;10.27;;
579;SDS011;276;48.392;9.950;2023-02-28T07:26:02;12.80;;;10.13;;
579;SDS011;276;48.392;9.950;2023-02-28T07:28:29;11.50;;;9.70;;
579;SDS011;276;48.392;9.950;2023-02-28T07:31:02;10.70;;;9.80;;
579;SDS011;276;48.392;9.950;2023-02-28T07:33:31;10.03;;;9.00;;
579;SDS011;276;48.392;9.950;2023-02-28T07:36:02;11.87;;;10.77;;
579;SDS011;276;48.392;9.950;2023-02-28T07:38:33;11.23;;;9.87;;
579;SDS011;276;48.392;9.950;2023-02-28T07:41:01;13.00;;;9.97;;
579;SDS011;276;48.392;9.950;2023-02-28T07:43:32;9.47;;;8.60;;
579;SDS011;276;48.392;9.950;2023-02-28T07:46:05;10.67;;;9.50;;
579;SDS011;276;48.392;9.950;2023-02-28T07:48:33;10.40;;;9.50;;
579;SDS011;276;48.392;9.950;2023-02-28T07:51:02;17.13;;;12.17;;
579;SDS011;276;48.392;9.950;2023-02-28T07:53:28;11.60;;;10.20;;
579;SDS011;276;48.392;9.950;2023-02-28T07:55:55;12.00;;;10.00;;
579;SDS011;276;48.392;9.950;2023-02-28T07:58:25;11.37;;;8.93;;
579;SDS011;276;48.392;9.950;2023-02-28T08:00:52;10.63;;;9.60;;
579;SDS011;276;48.392;9.950;2023-02-28T08:03:21;10.47;;;9.47;;
579;SDS011;276;48.392;9.950;2023-02-28T08:05:52;10.37;;;9.47;;
579;SDS011;276;48.392;9.950;2023-02-28T08:08:20;14.00;;;10.67;;
579;SDS011;276;48.392;9.950;2023-02-28T08:10:45;13.27;;;11.90;;
579;SDS011;276;48.392;9.950;2023-02-28T08:13:13;11.70;;;10.50;;
579;SDS011;276;48.392;9.950;2023-02-28T08:15:40;13.30;;;11.77;;
579;SDS011;276;48.392;9.950;2023-02-28T08:18:07;11.60;;;10.40;;
579;SDS011;276;48.392;9.950;2023-02-28T08:20:35;11.23;;;10.10;;
579;SDS011;276;48.392;9.950;2023-02-28T08:23:03;12.77;;;11.50;;
579;SDS011;276;48.392;9.950;2023-02-28T08:25:33;12.43;;;11.07;;
579;SDS011;276;48.392;9.950;2023-02-28T08:28:03;10.80;;;9.40;;
579;SDS011;276;48.392;9.950;2023-02-28T08:30:29;11.60;;;10.43;;
579;SDS011;276;48.392;9.950;2023-02-28T08:32:59;11.20;;;9.80;;
579;SDS011;276;48.392;9.950;2023-02-28T08:35:26;12.43;;;11.13;;
579;SDS011;276;48.392;9.950;2023-02-28T08:37:54;13.10;;;11.80;;
579;SDS011;276;48.392;9.950;2023-02-28T08:40:20;10.60;;;9.43;;
579;SDS011;276;48.392;9.950;2023-02-28T08:42:45;12.60;;;11.40;;
579;SDS011;276;48.392;9.950;2023-02-28T08:45:11;14.03;;;12.30;;
579;SDS011;276;48.392;9.950;2023-02-28T08:47:37;12.53;;;11.23;;
579;SDS011;276;48.392;9.950;2023-02-28T08:50:05;11.90;;;10.70;;
579;SDS011;276;48.392;9.950;2023-02-28T08:52:34;12.13;;;10.93;;
579;SDS011;276;48.392;9.950;2023-02-28T08:55:03;13.07;;;11.17;;
579;SDS011;276;48.392;9.950;2023-02-28T08:57:29;11.00;;;10.10;;
579;SDS011;276;48.392;9.950;2023-02-28T08:59:57;13.30;;;11.60;;
579;SDS011;276;48.392;9.950;2023-02-28T09:02:25;13.30;;;11.17;;
579;SDS011;276;48.392;9.950;2023-02-28T09:04:50;12.40;;;10.77;;
579;SDS011;276;48.392;9.950;2023-02-28T09:07:18;12.87;;;11.67;;
579;SDS011;276;48.392;9.950;2023-02-28T09:09:43;12.60;;;11.17;;
579;SDS011;276;48.392;9.950;2023-02-28T09:12:20;13.50;;;12.10;;
579;SDS011;276;48.392;9.950;2023-02-28T09:14:50;14.03;;;12.63;;
579;SDS011;276;48.392;9.950;2023-02-28T09:17:16;14.73;;;12.00;;
579;SDS011;276;48.392;9.950;2023-02-28T09:19:44;12.20;;;10.83;;
579;SDS011;276;48.392;9.950;2023-02-28T09:22:10;16.23;;;12.93;;
579;SDS011;276;48.392;9.950;2023-02-28T09:24:38;11.30;;;10.23;;
579;SDS011;276;48.392;9.950;2023-02-28T09:27:04;11.47;;;10.47;;
579;SDS011;276;48.392;9.950;2023-02-28T09:29:30;11.83;;;10.80;;
579;SDS011;276;48.392;9.950;2023-02-28T09:31:57;12.23;;;11.03;;
579;SDS011;276;48.392;9.950;2023-02-28T09:34:26;11.97;;;10.90;;
579;SDS011;276;48.392;9.950;2023-02-28T09:36:52;11.53;;;10.43;;
579;SDS011;276;48.392;9.950;2023-02-28T09:39:20;12.40;;;11.30;;
579;SDS011;276;48.392;9.950;2023-02-28T09:41:48;10.83;;;9.80;;
579;SDS011;276;48.392;9.950;2023-02-28T09:44:31;11.70;;;10.70;;
579;SDS011;276;48.392;9.950;2023-02-28T09:47:13;12.57;;;11.40;;
579;SDS011;276;48.392;9.950;2023-02-28T09:49:54;13.73;;;10.80;;
579;SDS011;276;48.392;9.950;2023-02-28T09:52:32;12.73;;;10.90;;
579;SDS011;276;48.392;9.950;2023-02-28T09:58:04;13.13;;;11.53;;
579;SDS011;276;48.392;9.950;2023-02-28T10:00:34;14.60;;;11.30;;
579;SDS011;276;48.392;9.950;2023-02-28T10:03:25;19.13;;;13.27;;
579;SDS011;276;48.392;9.950;2023-02-28T10:06:02;14.50;;;13.03;;
579;SDS011;276;48.392;9.950;2023-02-28T10:09:08;17.73;;;13.60;;
579;SDS011;276;48.392;9.950;2023-02-28T10:11:38;13.70;;;11.20;;
579;SDS011;276;48.392;9.950;2023-02-28T10:14:21;13.60;;;12.23;;
579;SDS011;276;48.392;9.950;2023-02-28T10:23:00;13.77;;;12.33;;
579;SDS011;276;48.392;9.950;2023-02-28T10:24:56;12.40;;;10.53;;
579;SDS011;276;48.392;9.950;2023-02-28T10:27:31;14.50;;;13.03;;
579;SDS011;276;48.392;9.950;2023-02-28T10:29:58;13.07;;;10.83;;
579;SDS011;276;48.392;9.950;2023-02-28T10:37:26;13.17;;;10.57;;
579;SDS011;276;48.392;9.950;2023-02-28T10:39:53;12.63;;;11.37;;
579;SDS011;276;48.392;9.950;2023-02-28T10:42:26;15.00;;;12.20;;
579;SDS011;276;48.392;9.950;2023-02-28T10:47:57;12.60;;;11.40;;
579;SDS011;276;48.392;9.950;2023-02-28T11:01:17;13.03;;;11.97;;
579;SDS011;276;48.392;9.950;2023-02-28T11:03:45;14.00;;;12.63;;
579;SDS011;276;48.392;9.950;2023-02-28T11:06:15;11.63;;;10.60;;
579;SDS011;276;48.392;9.950;2023-02-28T11:08:48;22.17;;;14.20;;
579;SDS011;276;48.392;9.950;2023-02-28T11:11:16;14.10;;;12.60;;
579;SDS011;276;48.392;9.950;2023-02-28T11:13:43;16.77;;;14.33;;
579;SDS011;276;48.392;9.950;2023-02-28T11:16:14;12.10;;;11.10;;
579;SDS011;276;48.392;9.950;2023-02-28T11:24:06;13.63;;;12.33;;
579;SDS011;276;48.392;9.950;2023-02-28T11:29:26;15.27;;;13.87;;
579;SDS011;276;48.392;9.950;2023-02-28T11:34:42;12.80;;;11.27;;
579;SDS011;276;48.392;9.950;2023-02-28T11:37:18;14.67;;;13.13;;
579;SDS011;276;48.392;9.950;2023-02-28T11:39:44;13.10;;;11.93;;
579;SDS011;276;48.392;9.950;2023-02-28T11:57:03;17.40;;;14.10;;
579;SDS011;276;48.392;9.950;2023-02-28T12:05:01;13.33;;;11.93;;
579;SDS011;276;48.392;9.950;2023-02-28T12:08:00;12.57;;;11.37;;
579;SDS011;276;48.392;9.950;2023-02-28T12:10:29;14.67;;;13.13;;
579;SDS011;276;48.392;9.950;2023-02-28T12:13:18;14.90;;;12.50;;
579;SDS011;276;48.392;9.950;2023-02-28T12:15:59;14.80;;;12.90;;
579;SDS011;276;48.392;9.950;2023-02-28T12:24:42;14.10;;;12.87;;
579;SDS011;276;48.392;9.950;2023-02-28T12:27:11;13.83;;;12.40;;
579;SDS011;276;48.392;9.950;2023-02-28T12:30:02;13.20;;;12.00;;
579;SDS011;276;48.392;9.950;2023-02-28T12:32:42;13.43;;;12.10;;
579;SDS011;276;48.392;9.950;2023-02-28T12:35:12;14.43;;;10.97;;
579;SDS011;276;48.392;9.950;2023-02-28T12:38:19;14.20;;;12.10;;
579;SDS011;276;48.392;9.950;2023-02-28T12:41:03;14.03;;;12.00;;
579;SDS011;276;48.392;9.950;2023-02-28T12:43:37;12.03;;;10.83;;
579;SDS011;276;48.392;9.950;2023-02-28T12:46:30;15.47;;;10.53;;
579;SDS011;276;48.392;9.950;2023-02-28T12:49:09;13.63;;;12.27;;
579;SDS011;276;48.392;9.950;2023-02-28T12:51:39;18.73;;;12.83;;
579;SDS011;276;48.392;9.950;2023-02-28T12:56:49;13.40;;;12.20;;
579;SDS011;276;48.392;9.950;2023-02-28T13:02:27;14.03;;;12.63;;
579;SDS011;276;48.392;9.950;2023-02-28T13:06:05;13.90;;;12.60;;
579;SDS011;276;48.392;9.950;2023-02-28T13:10:43;14.97;;;13.47;;
579;SDS011;276;48.392;9.950;2023-02-28T13:13:21;14.17;;;12.03;;
579;SDS011;276;48.392;9.950;2023-02-28T13:15:57;17.30;;;11.87;;
579;SDS011;276;48.392;9.950;2023-02-28T13:19:08;14.63;;;12.13;;
579;SDS011;276;48.392;9.950;2023-02-28T13:21:41;13.53;;;12.33;;
579;SDS011;276;48.392;9.950;2023-02-28T13:24:10;13.60;;;12.13;;
579;SDS011;276;48.392;9.950;2023-02-28T13:29:30;11.63;;;10.53;;
579;SDS011;276;48.392;9.950;2023-02-28T13:34:30;12.57;;;11.47;;
579;SDS011;276;48.392;9.950;2023-02-28T13:47:36;13.00;;;11.10;;
579;SDS011;276;48.392;9.950;2023-02-28T14:07:15;14.00;;;11.90;;
579;SDS011;276;48.392;9.950;2023-02-28T14:10:02;15.60;;;12.80;;
579;SDS011;276;48.392;9.950;2023-02-28T14:18:03;13.47;;;11.17;;
579;SDS011;276;48.392;9.950;2023-02-28T14:21:08;31.73;;;14.40;;
579;SDS011;276;48.392;9.950;2023-02-28T14:23:54;15.10;;;11.83;;
579;SDS011;276;48.392;9.950;2023-02-28T14:26:55;13.87;;;12.50;;
579;SDS011;276;48.392;9.950;2023-02-28T14:35:12;13.13;;;11.87;;
579;SDS011;276;48.392;9.950;2023-02-28T14:38:13;12.70;;;10.77;;
579;SDS011;276;48.392;9.950;2023-02-28T14:40:46;10.13;;;9.20;;
579;SDS011;276;48.392;9.950;2023-02-28T14:43:35;13.60;;;12.23;;
579;SDS011;276;48.392;9.950;2023-02-28T14:46:04;13.87;;;12.40;;
579;SDS011;276;48.392;9.950;2023-02-28T14:48:31;12.07;;;10.97;;
579;SDS011;276;48.392;9.950;2023-02-28T14:50:59;10.93;;;10.03;;
579;SDS011;276;48.392;9.950;2023-02-28T14:53:29;15.40;;;11.60;;
579;SDS011;276;48.392;9.950;2023-02-28T14:56:00;12.70;;;11.57;;
579;SDS011;276;48.392;9.950;2023-02-28T14:58:28;14.93;;;12.30;;
579;SDS011;276;48.392;9.950;2023-02-28T15:00:59;16.10;;;12.07;;
579;SDS011;276;48.392;9.950;2023-02-28T15:03:35;17.77;;;14.83;;
579;SDS011;276;48.392;9.950;2023-02-28T15:08:42;13.60;;;12.23;;
579;SDS011;276;48.392;9.950;2023-02-28T15:11:27;16.33;;;12.30;;
579;SDS011;276;48.392;9.950;2023-02-28T15:13:53;19.80;;;12.73;;
579;SDS011;276;48.392;9.950;2023-02-28T15:16:40;14.70;;;10.90;;
579;SDS011;276;48.392;9.950;2023-02-28T15:19:12;11.77;;;10.57;;
579;SDS011;276;48.392;9.950;2023-02-28T15:21:46;13.70;;;12.27;;
579;SDS011;276;48.392;9.950;2023-02-28T15:24:32;14.90;;;12.60;;
579;SDS011;276;48.392;9.950;2023-02-28T15:27:11;14.03;;;11.97;;
579;SDS011;276;48.392;9.950;2023-02-28T15:29:47;16.03;;;14.33;;
579;SDS011;276;48.392;9.950;2023-02-28T15:32:38;13.80;;;11.13;;
579;SDS011;276;48.392;9.950;2023-02-28T15:35:18;13.43;;;10.63;;
579;SDS011;276;48.392;9.950;2023-02-28T15:50:42;12.00;;;10.70;;
579;SDS011;276;48.392;9.950;2023-02-28T15:53:12;14.37;;;11.77;;
579;SDS011;276;48.392;9.950;2023-02-28T15:55:40;10.77;;;9.17;;
579;SDS011;276;48.392;9.950;2023-02-28T15:58:11;10.90;;;9.73;;
579;SDS011;276;48.392;9.950;2023-02-28T16:00:40;12.33;;;11.10;;
579;SDS011;276;48.392;9.950;2023-02-28T16:03:32;13.20;;;10.30;;
579;SDS011;276;48.392;9.950;2023-02-28T16:08:41;22.60;;;10.80;;
579;SDS011;276;48.392;9.950;2023-02-28T16:11:08;32.13;;;13.93;;
579;SDS011;276;48.392;9.950;2023-02-28T16:13:37;22.67;;;15.50;;
579;SDS011;276;48.392;9.950;2023-02-28T16:16:05;23.37;;;13.57;;
579;SDS011;276;48.392;9.950;2023-02-28T16:18:33;15.30;;;12.07;;
579;SDS011;276;48.392;9.950;2023-02-28T16:20:58;14.60;;;11.10;;
579;SDS011;276;48.392;9.950;2023-02-28T16:23:26;15.60;;;11.17;;
579;SDS011;276;48.392;9.950;2023-02-28T16:25:57;17.63;;;12.00;;
579;SDS011;276;48.392;9.950;2023-02-28T16:28:43;14.80;;;12.97;;
579;SDS011;276;48.392;9.950;2023-02-28T16:31:11;16.03;;;11.23;;
579;SDS011;276;48.392;9.950;2023-02-28T16:33:41;12.93;;;11.50;;
579;SDS011;276;48.392;9.950;2023-02-28T16:36:13;18.53;;;11.67;;
579;SDS011;276;48.392;9.950;2023-02-28T16:38:45;18.43;;;13.73;;
579;SDS011;276;48.392;9.950;2023-02-28T16:41:18;18.20;;;13.20;;
579;SDS011;276;48.392;9.950;2023-02-28T16:43:46;11.80;;;10.80;;
579;SDS011;276;48.392;9.950;2023-02-28T16:46:16;13.10;;;11.80;;
579;SDS011;276;48.392;9.950;2023-02-28T16:48:46;12.50;;;11.30;;
579;SDS011;276;48.392;9.950;2023-02-28T16:51:18;13.00;;;11.70;;
579;SDS011;276;48.392;9.950;2023-02-28T16:53:44;12.30;;;11.27;;
579;SDS011;276;48.392;9.950;2023-02-28T16:56:13;12.40;;;11.20;;
579;SDS011;276;48.392;9.950;2023-02-28T16:58:50;12.83;;;11.73;;
579;SDS011;276;48.392;9.950;2023-02-28T17:01:16;12.90;;;11.63;;
579;SDS011;276;48.392;9.950;2023-02-28T17:03:46;11.10;;;10.10;;
579;SDS011;276;48.392;9.950;2023-02-28T17:06:20;10.17;;;9.20;;
579;SDS011;276;48.392;9.950;2023-02-28T17:08:51;10.93;;;9.90;;
579;SDS011;276;48.392;9.950;2023-02-28T17:11:17;10.83;;;9.93;;
579;SDS011;276;48.392;9.950;2023-02-28T17:13:43;11.63;;;10.43;;
579;SDS011;276;48.392;9.950;2023-02-28T17:16:30;14.20;;;10.47;;
579;SDS011;276;48.392;9.950;2023-02-28T17:19:01;12.30;;;11.10;;
579;SDS011;276;48.392;9.950;2023-02-28T17:21:29;12.10;;;11.00;;
579;SDS011;276;48.392;9.950;2023-02-28T17:23:55;10.83;;;9.87;;
579;SDS011;276;48.392;9.950;2023-02-28T17:26:21;14.13;;;12.70;;
579;SDS011;276;48.392;9.950;2023-02-28T17:28:50;13.03;;;11.80;;
579;SDS011;276;48.392;9.950;2023-02-28T17:31:16;14.03;;;12.80;;
579;SDS011;276;48.392;9.950;2023-02-28T17:33:45;14.13;;;12.43;;
579;SDS011;276;48.392;9.950;2023-02-28T17:36:14;12.30;;;11.07;;
579;SDS011;276;48.392;9.950;2023-02-28T17:38:51;15.13;;;13.63;;
579;SDS011;276;48.392;9.950;2023-02-28T17:41:23;13.90;;;12.50;;
579;SDS011;276;48.392;9.950;2023-02-28T17:43:51;16.37;;;14.70;;
579;SDS011;276;48.392;9.950;2023-02-28T17:46:18;18.43;;;14.60;;
579;SDS011;276;48.392;9.950;2023-02-28T17:48:48;15.10;;;13.50;;
579;SDS011;276;48.392;9.950;2023-02-28T17:51:15;14.00;;;12.57;;
579;SDS011;276;48.392;9.950;2023-02-28T17:53:45;13.43;;;12.20;;
579;SDS011;276;48.392;9.950;2023-02-28T17:56:13;15.23;;;13.90;;
579;SDS011;276;48.392;9.950;2023-02-28T17:58:44;16.50;;;13.83;;
579;SDS011;276;48.392;9.950;2023-02-28T18:01:12;15.03;;;13.63;;
579;SDS011;276;48.392;9.950;2023-02-28T18:03:38;17.30;;;13.90;;
579;SDS011;276;48.392;9.950;2023-02-28T18:06:06;16.03;;;14.00;;
579;SDS011;276;48.392;9.950;2023-02-28T18:08:38;14.30;;;12.90;;
579;SDS011;276;48.392;9.950;2023-02-28T18:11:04;17.23;;;15.50;;
579;SDS011;276;48.392;9.950;2023-02-28T18:13:29;16.97;;;15.20;;
579;SDS011;276;48.392;9.950;2023-02-28T18:15:55;15.20;;;13.63;;
579;SDS011;276;48.392;9.950;2023-02-28T18:18:21;16.73;;;13.30;;
579;SDS011;276;48.392;9.950;2023-02-28T18:20:46;15.03;;;12.73;;
579;SDS011;276;48.392;9.950;2023-02-28T18:23:14;14.17;;;12.87;;
579;SDS011;276;48.392;9.950;2023-02-28T18:25:44;14.40;;;13.00;;
579;SDS011;276;48.392;9.950;2023-02-28T18:28:10;13.60;;;12.20;;
579;SDS011;276;48.392;9.950;2023-02-28T18:30:35;12.67;;;11.37;;
579;SDS011;276;48.392;9.950;2023-02-28T18:33:02;13.90;;;12.53;;
579;SDS011;276;48.392;9.950;2023-02-28T18:35:30;15.03;;;13.63;;
579;SDS011;276;48.392;9.950;2023-02-28T18:40:28;15.43;;;13.67;;
579;SDS011;276;48.392;9.950;2023-02-28T18:42:56;16.23;;;14.60;;
579;SDS011;276;48.392;9.950;2023-02-28T18:45:22;14.33;;;13.00;;
579;SDS011;276;48.392;9.950;2023-02-28T18:47:48;14.60;;;13.10;;